Time;durP1;ratioP1;P1;durP2;ratioP2;P2;SDS_P1;SDS_P2;PMS_P1;PMS_P2;Temp;Humidity;BMP_temperature;BMP_pressure;BME280_temperature;BME280_humidity;BME280_pressure;Samples;Min_cycle;Max_cycle;Signal;HPM_P1;HPM_P2
2023/03/23 00:02:12;;;;;;;1.10;1.00;;;13.40;84.90;;;;;;5017071;28;20051;-69
2023/03/23 00:04:37;;;;;;;1.55;1.20;;;13.50;84.90;;;;;;5021905;28;20018;-65
2023/03/23 00:07:03;;;;;;;2.40;1.23;;;13.50;84.70;;;;;;5023152;28;20390;-64
2023/03/23 00:09:29;;;;;;;3.53;1.48;;;13.50;84.60;;;;;;5034495;28;20022;-64
2023/03/23 00:11:56;;;;;;;1.35;1.15;;;13.50;84.50;;;;;;5019283;28;20056;-65
2023/03/23 00:14:23;;;;;;;1.48;1.10;;;13.50;84.30;;;;;;5035506;28;20041;-65
2023/03/23 00:16:50;;;;;;;1.42;0.98;;;13.50;84.20;;;;;;5031110;28;20033;-65
2023/03/23 00:19:19;;;;;;;1.13;1.00;;;13.60;84.20;;;;;;5036888;28;20109;-64
2023/03/23 00:21:45;;;;;;;1.83;1.13;;;13.60;84.20;;;;;;5034427;28;20113;-65
2023/03/23 00:24:15;;;;;;;1.92;1.02;;;13.60;84.10;;;;;;5010789;28;20051;-63
2023/03/23 00:26:43;;;;;;;2.20;1.23;;;13.60;84.00;;;;;;5031240;28;20075;-69
2023/03/23 00:29:29;;;;;;;3.33;1.35;;;13.60;83.80;;;;;;5013414;28;20017;-69
2023/03/23 00:31:56;;;;;;;1.30;1.15;;;13.70;83.70;;;;;;5011786;28;20022;-69
2023/03/23 00:34:24;;;;;;;1.65;0.60;;;13.60;83.70;;;;;;5015222;28;20363;-68
2023/03/23 00:36:53;;;;;;;3.47;1.20;;;13.60;83.40;;;;;;5015810;28;20018;-69
2023/03/23 00:39:19;;;;;;;1.00;0.90;;;13.60;83.50;;;;;;5023909;28;20030;-68
2023/03/23 00:41:46;;;;;;;2.10;1.00;;;13.60;83.40;;;;;;5012913;28;20116;-65
2023/03/23 00:44:18;;;;;;;2.65;1.50;;;13.60;83.10;;;;;;5024547;28;20054;-68
2023/03/23 00:46:45;;;;;;;2.78;1.25;;;13.60;83.20;;;;;;5028378;28;20021;-68
2023/03/23 00:49:27;;;;;;;2.25;1.33;;;13.60;83.20;;;;;;5032807;28;20029;-69
2023/03/23 00:51:54;;;;;;;7.53;1.10;;;13.60;83.20;;;;;;5025263;28;20149;-68
2023/03/23 00:54:20;;;;;;;0.82;0.65;;;13.60;83.10;;;;;;5017726;28;20107;-69
2023/03/23 00:56:46;;;;;;;1.85;1.10;;;13.60;83.20;;;;;;5004076;28;20110;-68
2023/03/23 00:59:12;;;;;;;2.15;0.90;;;13.60;83.20;;;;;;5030471;28;20064;-69
2023/03/23 01:01:38;;;;;;;1.50;1.27;;;13.70;83.10;;;;;;5027195;28;20009;-69
2023/03/23 01:04:04;;;;;;;3.78;1.10;;;13.60;83.00;;;;;;5031667;28;20057;-69
2023/03/23 01:06:34;;;;;;;2.03;1.00;;;13.60;83.00;;;;;;5032774;28;20028;-69
2023/03/23 01:09:03;;;;;;;1.65;1.20;;;13.60;83.00;;;;;;5010608;28;20457;-69
2023/03/23 01:11:29;;;;;;;1.45;1.05;;;13.60;83.00;;;;;;5032206;28;20034;-68
2023/03/23 01:13:55;;;;;;;2.92;1.42;;;13.60;83.00;;;;;;5014101;28;20026;-69
2023/03/23 01:16:21;;;;;;;2.55;1.45;;;13.60;83.00;;;;;;5020489;28;20026;-69
2023/03/23 01:18:47;;;;;;;1.20;1.10;;;13.60;82.90;;;;;;5012195;28;20488;-68
2023/03/23 01:21:15;;;;;;;2.10;1.10;;;13.60;83.00;;;;;;5033609;28;20057;-69
2023/03/23 01:23:41;;;;;;;1.95;1.50;;;13.60;83.10;;;;;;5013901;28;20025;-64
2023/03/23 01:26:10;;;;;;;1.50;1.13;;;13.60;83.10;;;;;;5028317;28;20071;-65
2023/03/23 01:28:36;;;;;;;1.20;0.98;;;13.60;83.10;;;;;;5033746;28;20021;-69
2023/03/23 01:31:13;;;;;;;1.42;1.27;;;13.50;83.10;;;;;;5010336;28;20034;-70
2023/03/23 01:33:41;;;;;;;1.90;1.23;;;13.50;82.90;;;;;;5030963;28;20034;-69
2023/03/23 01:36:15;;;;;;;4.00;1.40;;;13.50;83.00;;;;;;5001647;28;20108;-69
2023/03/23 01:38:43;;;;;;;1.10;1.00;;;13.50;83.00;;;;;;5029299;28;20721;-64
2023/03/23 01:41:09;;;;;;;1.42;1.10;;;13.50;83.10;;;;;;5029155;28;20075;-69
2023/03/23 01:43:35;;;;;;;6.50;1.27;;;13.50;83.00;;;;;;5030636;28;20073;-69
2023/03/23 01:46:00;;;;;;;2.85;1.08;;;13.50;83.00;;;;;;5030233;28;20451;-65
2023/03/23 01:48:38;;;;;;;1.83;1.23;;;13.60;82.90;;;;;;5031978;28;20103;-64
2023/03/23 01:51:15;;;;;;;2.38;1.13;;;13.60;82.80;;;;;;5029780;28;20021;-63
2023/03/23 01:53:48;;;;;;;1.48;1.35;;;13.60;82.60;;;;;;5032361;28;20045;-64
2023/03/23 01:56:18;;;;;;;1.80;1.33;;;13.50;82.50;;;;;;5030212;28;20104;-63
2023/03/23 01:58:45;;;;;;;1.92;1.30;;;13.50;82.50;;;;;;5030751;28;20088;-64
2023/03/23 02:01:15;;;;;;;1.50;1.20;;;13.50;82.40;;;;;;5032282;28;20109;-64
2023/03/23 02:03:45;;;;;;;1.10;1.00;;;13.50;82.40;;;;;;5032055;28;20025;-64
2023/03/23 02:06:11;;;;;;;2.70;1.33;;;13.60;82.40;;;;;;5024940;28;20092;-65
2023/03/23 02:08:40;;;;;;;2.35;1.27;;;13.60;82.30;;;;;;5035758;28;20025;-65
2023/03/23 02:11:18;;;;;;;1.60;1.13;;;13.60;82.30;;;;;;5015677;28;20030;-65
2023/03/23 02:13:45;;;;;;;2.08;1.02;;;13.70;82.10;;;;;;5021423;28;20025;-65
2023/03/23 02:19:54;;;;;;;1.52;1.40;;;13.70;82.20;;;;;;5029107;28;20036;-63
2023/03/23 02:22:41;;;;;;;1.70;1.27;;;13.60;82.40;;;;;;5028189;28;20030;-65
2023/03/23 02:25:27;;;;;;;2.75;1.40;;;13.60;82.40;;;;;;5026828;28;20107;-64
2023/03/23 02:28:15;;;;;;;1.25;1.15;;;13.60;82.60;;;;;;5029221;28;20021;-69
2023/03/23 02:31:05;;;;;;;5.68;1.23;;;13.70;82.50;;;;;;5035563;28;20487;-70
2023/03/23 02:34:17;;;;;;;7.75;2.22;;;13.70;82.60;;;;;;5033660;28;20484;-66
2023/03/23 02:36:54;;;;;;;2.17;1.38;;;13.70;82.50;;;;;;5013957;28;20531;-64
2023/03/23 02:39:26;;;;;;;0.95;0.90;;;13.70;82.60;;;;;;5036773;28;20021;-63
2023/03/23 02:41:56;;;;;;;4.30;1.30;;;13.70;82.60;;;;;;5020727;28;20022;-65
2023/03/23 02:44:24;;;;;;;2.85;1.27;;;13.70;82.60;;;;;;5039348;28;20041;-64
2023/03/23 02:46:52;;;;;;;0.98;0.85;;;13.70;82.50;;;;;;5036860;28;20496;-64
2023/03/23 02:49:19;;;;;;;1.50;0.80;;;13.70;82.50;;;;;;5034944;28;20037;-63
2023/03/23 02:51:46;;;;;;;2.00;1.00;;;13.70;82.50;;;;;;5035024;28;20412;-64
2023/03/23 02:54:14;;;;;;;3.22;2.05;;;13.70;82.40;;;;;;5030509;28;20076;-64
2023/03/23 02:56:41;;;;;;;5.07;1.23;;;13.70;82.40;;;;;;5039571;28;20029;-68
2023/03/23 02:59:06;;;;;;;3.20;1.38;;;13.70;82.50;;;;;;5039013;28;20460;-69
2023/03/23 03:01:32;;;;;;;3.97;1.20;;;13.80;82.40;;;;;;5021344;28;20037;-69
2023/03/23 03:04:03;;;;;;;4.50;1.30;;;13.70;82.30;;;;;;5042666;28;20029;-69
2023/03/23 03:07:11;;;;;;;1.88;1.20;;;13.80;82.30;;;;;;5004263;28;20105;-69
2023/03/23 03:10:06;;;;;;;1.65;1.08;;;13.80;82.20;;;;;;4952617;28;20027;-69
2023/03/23 03:12:41;;;;;;;2.05;1.20;;;13.80;82.20;;;;;;5027248;28;20477;-69
2023/03/23 03:15:26;;;;;;;3.72;1.33;;;13.80;82.20;;;;;;5023616;28;20030;-70
2023/03/23 03:18:11;;;;;;;1.48;1.17;;;13.80;82.10;;;;;;5027491;28;20473;-64
2023/03/23 03:20:41;;;;;;;1.70;1.13;;;13.80;81.90;;;;;;5025113;28;20662;-64
2023/03/23 03:23:09;;;;;;;1.85;1.30;;;13.80;81.90;;;;;;5012877;28;20039;-69
2023/03/23 03:25:36;;;;;;;0.98;0.70;;;13.80;81.90;;;;;;5028529;28;20076;-65
2023/03/23 03:28:03;;;;;;;0.95;0.90;;;13.90;81.90;;;;;;5030491;28;20121;-64
2023/03/23 03:30:31;;;;;;;1.48;1.02;;;13.90;81.60;;;;;;5029609;28;20071;-65
2023/03/23 03:33:00;;;;;;;1.88;1.35;;;13.90;81.40;;;;;;5029441;28;20028;-64
2023/03/23 03:35:26;;;;;;;1.00;0.98;;;13.90;81.50;;;;;;5016242;28;20034;-68
2023/03/23 03:37:52;;;;;;;1.52;1.00;;;13.90;81.40;;;;;;5033285;28;20028;-64
2023/03/23 03:40:21;;;;;;;4.82;1.25;;;13.90;81.20;;;;;;5033876;28;20036;-64
2023/03/23 03:42:47;;;;;;;1.67;1.42;;;13.90;81.30;;;;;;5028761;28;20069;-65
2023/03/23 03:45:18;;;;;;;1.80;1.48;;;13.90;81.40;;;;;;5025684;28;20049;-66
2023/03/23 03:47:44;;;;;;;3.08;1.60;;;14.00;81.60;;;;;;5030274;28;20016;-65
2023/03/23 03:50:10;;;;;;;3.47;1.20;;;13.90;81.50;;;;;;5035537;28;20421;-64
2023/03/23 03:52:38;;;;;;;2.20;1.05;;;13.90;81.50;;;;;;5014687;28;20117;-64
2023/03/23 03:55:05;;;;;;;1.83;1.27;;;13.90;81.50;;;;;;5030828;28;20068;-65
2023/03/23 03:57:30;;;;;;;2.00;1.48;;;13.90;81.40;;;;;;5027894;28;20503;-64
2023/03/23 03:59:56;;;;;;;1.90;1.10;;;13.90;81.40;;;;;;5031004;28;20096;-68
2023/03/23 04:02:22;;;;;;;1.88;1.30;;;13.90;81.40;;;;;;5020454;28;20125;-70
2023/03/23 04:04:49;;;;;;;2.40;1.13;;;13.90;81.40;;;;;;5013504;28;20435;-65
2023/03/23 04:07:18;;;;;;;2.08;1.50;;;13.90;81.40;;;;;;5031781;28;20033;-68
2023/03/23 04:09:46;;;;;;;1.38;0.88;;;14.00;81.30;;;;;;5031465;28;20026;-70
2023/03/23 04:12:12;;;;;;;1.60;1.17;;;14.00;81.10;;;;;;5028975;28;20037;-64
2023/03/23 04:14:38;;;;;;;1.45;1.15;;;13.90;80.90;;;;;;5014348;28;20037;-64
2023/03/23 04:17:04;;;;;;;0.98;0.90;;;14.00;80.90;;;;;;5030850;28;20481;-64
2023/03/23 04:19:32;;;;;;;2.88;1.98;;;14.00;80.70;;;;;;5031006;28;20053;-65
2023/03/23 04:21:59;;;;;;;1.23;0.98;;;14.00;80.60;;;;;;5036552;28;20041;-64
2023/03/23 04:24:28;;;;;;;1.40;1.00;;;14.00;80.50;;;;;;5037087;28;20036;-64
2023/03/23 04:26:54;;;;;;;1.23;1.13;;;14.00;80.40;;;;;;5034962;28;20022;-63
2023/03/23 04:29:20;;;;;;;1.50;1.08;;;14.00;80.00;;;;;;5039862;28;20036;-64
2023/03/23 04:31:45;;;;;;;2.67;1.40;;;14.10;80.00;;;;;;5028910;28;20061;-64
2023/03/23 04:34:13;;;;;;;1.02;0.82;;;14.10;80.00;;;;;;5036968;28;20041;-64
2023/03/23 04:36:40;;;;;;;8.10;1.45;;;14.10;79.80;;;;;;5029279;28;20039;-64
2023/03/23 04:39:09;;;;;;;1.23;1.13;;;14.10;79.70;;;;;;5034915;28;20037;-63
2023/03/23 04:41:39;;;;;;;1.88;1.08;;;14.10;79.60;;;;;;5028342;28;20048;-69
2023/03/23 04:44:06;;;;;;;1.10;1.00;;;14.10;79.60;;;;;;5027660;28;20064;-64
2023/03/23 04:46:32;;;;;;;2.22;0.90;;;14.10;79.60;;;;;;5031912;28;20032;-69
2023/03/23 04:48:59;;;;;;;1.40;1.02;;;14.10;79.20;;;;;;5013733;28;20068;-68
2023/03/23 04:51:31;;;;;;;1.50;0.90;;;14.10;79.20;;;;;;5029610;28;20111;-69
2023/03/23 04:53:56;;;;;;;2.22;1.55;;;14.10;78.90;;;;;;5020740;28;20484;-69
2023/03/23 04:56:22;;;;;;;4.75;1.00;;;14.20;78.80;;;;;;5020054;28;20034;-69
2023/03/23 04:58:48;;;;;;;1.30;1.20;;;14.20;78.80;;;;;;5033764;28;20063;-64
2023/03/23 05:01:14;;;;;;;3.38;1.63;;;14.20;78.20;;;;;;5040344;28;20036;-64
2023/03/23 05:03:40;;;;;;;1.77;1.05;;;14.20;78.00;;;;;;5035396;28;20029;-69
2023/03/23 05:06:07;;;;;;;0.80;0.60;;;14.20;78.00;;;;;;5021699;28;20063;-69
2023/03/23 05:08:33;;;;;;;1.65;1.23;;;14.20;77.90;;;;;;5018541;28;20132;-69
2023/03/23 05:11:00;;;;;;;3.83;1.00;;;14.10;77.30;;;;;;5031502;28;20505;-63
2023/03/23 05:13:27;;;;;;;0.95;0.75;;;14.20;77.30;;;;;;5032679;28;20105;-69
2023/03/23 05:15:53;;;;;;;1.90;0.90;;;14.20;77.30;;;;;;5008879;28;20030;-64
2023/03/23 05:18:20;;;;;;;6.07;1.08;;;14.20;77.20;;;;;;5028855;28;20407;-71
2023/03/23 05:20:46;;;;;;;0.98;0.70;;;14.20;77.20;;;;;;5044249;28;20075;-72
2023/03/23 05:23:13;;;;;;;1.65;0.93;;;14.20;76.90;;;;;;5031082;28;20428;-71
2023/03/23 05:25:42;;;;;;;1.30;0.88;;;14.20;76.80;;;;;;5028254;28;20022;-69
2023/03/23 05:28:08;;;;;;;2.72;0.73;;;14.20;76.70;;;;;;5017264;28;20499;-64
2023/03/23 05:30:35;;;;;;;1.77;0.95;;;14.20;76.40;;;;;;5016728;28;20113;-64
2023/03/23 05:33:01;;;;;;;2.08;0.73;;;14.20;76.40;;;;;;5022321;28;20034;-64
2023/03/23 05:35:27;;;;;;;2.20;1.25;;;14.20;76.30;;;;;;5023893;28;20021;-65
2023/03/23 05:37:56;;;;;;;1.50;1.02;;;14.20;76.40;;;;;;5021853;28;20045;-69
2023/03/23 05:40:25;;;;;;;1.13;0.90;;;14.20;76.30;;;;;;5031083;28;20040;-69
2023/03/23 05:42:51;;;;;;;0.60;0.50;;;14.20;76.10;;;;;;5008543;28;20025;-65
2023/03/23 05:45:17;;;;;;;9.35;1.23;;;14.20;76.50;;;;;;5025031;28;20098;-65
2023/03/23 05:47:43;;;;;;;2.83;1.17;;;14.20;76.10;;;;;;5007523;28;20037;-70
2023/03/23 05:50:10;;;;;;;7.68;1.23;;;14.20;75.90;;;;;;5004400;28;20045;-63
2023/03/23 05:52:36;;;;;;;2.05;0.88;;;14.20;75.90;;;;;;5027335;28;20091;-71
2023/03/23 05:55:03;;;;;;;2.60;1.00;;;14.20;76.00;;;;;;5012270;28;20029;-71
2023/03/23 05:57:29;;;;;;;0.80;0.47;;;14.20;76.00;;;;;;5039046;28;20021;-70
2023/03/23 05:59:57;;;;;;;3.58;1.00;;;14.20;76.10;;;;;;5032997;28;20040;-69
2023/03/23 06:02:24;;;;;;;5.80;1.48;;;14.20;76.10;;;;;;5021720;28;20025;-69
2023/03/23 06:04:50;;;;;;;1.67;0.73;;;14.20;76.10;;;;;;5017518;28;20382;-68
2023/03/23 06:07:16;;;;;;;2.38;1.02;;;14.20;76.20;;;;;;5033958;28;20480;-69
2023/03/23 06:09:42;;;;;;;1.88;0.75;;;14.30;76.20;;;;;;5032214;28;20101;-68
2023/03/23 06:12:09;;;;;;;1.90;0.60;;;14.30;76.10;;;;;;5032053;28;20492;-69
2023/03/23 06:14:36;;;;;;;3.15;0.70;;;14.30;76.00;;;;;;5033343;28;20097;-69
2023/03/23 06:17:02;;;;;;;1.70;0.70;;;14.30;76.10;;;;;;5019952;28;20045;-70
2023/03/23 06:19:28;;;;;;;1.67;0.93;;;14.30;76.00;;;;;;5028203;28;20014;-70
2023/03/23 06:21:55;;;;;;;3.03;1.00;;;14.30;76.10;;;;;;5020338;28;20038;-67
2023/03/23 06:24:21;;;;;;;2.50;1.52;;;14.30;76.10;;;;;;5034522;28;20030;-66
2023/03/23 06:26:47;;;;;;;0.90;0.70;;;14.30;76.20;;;;;;5031825;28;20048;-68
2023/03/23 06:29:13;;;;;;;2.20;0.82;;;14.30;76.20;;;;;;5031689;28;20033;-67
2023/03/23 06:31:46;;;;;;;1.15;0.60;;;14.30;76.30;;;;;;5022353;28;20052;-67
2023/03/23 06:34:12;;;;;;;2.20;0.70;;;14.30;76.10;;;;;;5011588;28;20029;-66
2023/03/23 06:36:43;;;;;;;2.50;0.95;;;14.30;76.20;;;;;;5031203;28;20472;-67
2023/03/23 06:39:09;;;;;;;1.90;1.10;;;14.30;76.20;;;;;;5034734;28;20108;-66
2023/03/23 06:41:35;;;;;;;3.30;1.50;;;14.40;76.10;;;;;;5033173;28;20271;-67
2023/03/23 06:44:01;;;;;;;5.38;0.80;;;14.40;76.00;;;;;;5027896;28;20046;-64
2023/03/23 06:46:27;;;;;;;1.45;0.90;;;14.30;76.00;;;;;;5019826;28;20022;-66
2023/03/23 06:48:54;;;;;;;3.92;0.95;;;14.30;76.00;;;;;;5027327;28;20056;-66
2023/03/23 06:51:20;;;;;;;2.67;0.63;;;14.30;75.90;;;;;;5031489;28;20502;-67
2023/03/23 06:53:46;;;;;;;2.30;0.52;;;14.30;76.00;;;;;;5030487;28;20040;-66
2023/03/23 06:56:12;;;;;;;1.55;0.73;;;14.30;76.00;;;;;;5031486;28;20112;-67
2023/03/23 06:58:39;;;;;;;5.28;1.15;;;14.30;75.90;;;;;;5030158;28;20666;-66
2023/03/23 07:01:05;;;;;;;5.80;1.33;;;14.30;75.80;;;;;;5022751;28;20108;-67
2023/03/23 07:03:31;;;;;;;0.88;0.77;;;14.30;75.80;;;;;;5026547;28;20033;-66
2023/03/23 07:05:59;;;;;;;2.70;0.88;;;14.30;76.00;;;;;;5003825;28;20120;-68
2023/03/23 07:08:26;;;;;;;1.83;1.15;;;14.30;76.10;;;;;;5035738;28;20537;-64
2023/03/23 07:10:52;;;;;;;5.30;1.35;;;14.30;76.30;;;;;;5031912;28;20108;-67
2023/03/23 07:13:19;;;;;;;4.97;1.25;;;14.30;76.40;;;;;;5032122;28;20022;-65
2023/03/23 07:15:45;;;;;;;1.00;0.85;;;14.30;76.40;;;;;;5029318;28;20044;-65
2023/03/23 07:18:11;;;;;;;1.02;0.60;;;14.30;76.40;;;;;;5026165;28;20040;-66
2023/03/23 07:20:37;;;;;;;2.45;0.80;;;14.40;76.40;;;;;;5030316;28;20053;-68
2023/03/23 07:23:05;;;;;;;2.67;0.70;;;14.40;76.30;;;;;;5013232;28;20473;-68
2023/03/23 07:25:32;;;;;;;1.30;0.70;;;14.40;76.10;;;;;;5028871;28;20025;-62
2023/03/23 07:28:00;;;;;;;3.65;1.48;;;14.40;76.20;;;;;;4991995;28;20029;-66
2023/03/23 07:30:26;;;;;;;2.28;1.10;;;14.40;76.20;;;;;;5034771;28;20048;-65
2023/03/23 07:32:52;;;;;;;9.23;1.02;;;14.40;76.20;;;;;;5002921;28;20030;-66
2023/03/23 07:35:18;;;;;;;1.27;0.82;;;14.40;76.20;;;;;;5021869;28;20025;-68
2023/03/23 07:37:45;;;;;;;2.45;1.25;;;14.50;76.40;;;;;;5011441;28;20041;-67
2023/03/23 07:40:14;;;;;;;0.77;0.77;;;14.50;76.30;;;;;;5028624;28;20235;-67
2023/03/23 07:42:45;;;;;;;0.63;0.57;;;14.50;76.20;;;;;;5010131;28;20434;-68
2023/03/23 07:45:12;;;;;;;5.18;0.70;;;14.50;76.10;;;;;;5026601;28;20123;-67
2023/03/23 07:47:39;;;;;;;2.45;0.80;;;14.40;75.80;;;;;;5029176;28;20057;-66
2023/03/23 07:50:06;;;;;;;2.15;0.80;;;14.40;75.10;;;;;;5012231;28;20477;-66
2023/03/23 07:52:34;;;;;;;0.98;0.63;;;14.40;74.80;;;;;;5030166;28;20025;-67
2023/03/23 07:55:03;;;;;;;2.83;0.50;;;14.30;74.60;;;;;;5020946;28;20104;-66
2023/03/23 07:57:30;;;;;;;1.27;0.57;;;14.30;74.50;;;;;;5027350;28;20046;-66
2023/03/23 07:59:56;;;;;;;3.75;0.85;;;14.30;74.70;;;;;;5013073;28;20576;-65
2023/03/23 08:02:23;;;;;;;2.17;0.90;;;14.20;75.60;;;;;;5016234;28;20021;-67
2023/03/23 08:04:50;;;;;;;1.15;0.65;;;14.10;75.60;;;;;;5029569;28;20014;-68
2023/03/23 08:07:18;;;;;;;2.53;0.45;;;14.10;76.50;;;;;;5034952;28;20405;-68
2023/03/23 08:09:45;;;;;;;3.00;0.93;;;14.10;76.30;;;;;;5032824;28;20680;-69
2023/03/23 08:12:11;;;;;;;0.70;0.55;;;14.00;76.70;;;;;;5032616;28;20022;-64
2023/03/23 08:14:37;;;;;;;0.60;0.60;;;14.00;77.00;;;;;;5029402;28;20025;-68
2023/03/23 08:17:02;;;;;;;4.82;0.70;;;14.00;77.50;;;;;;5032364;28;20037;-67
2023/03/23 08:19:28;;;;;;;1.00;0.70;;;13.90;78.00;;;;;;5017913;28;20301;-66
2023/03/23 08:21:54;;;;;;;3.00;0.98;;;13.90;78.40;;;;;;5039017;28;20034;-68
2023/03/23 08:24:19;;;;;;;2.90;1.05;;;13.80;78.80;;;;;;5012743;28;20038;-66
2023/03/23 08:26:45;;;;;;;0.63;0.63;;;13.80;79.10;;;;;;5025948;28;20144;-68
2023/03/23 08:29:11;;;;;;;4.22;0.88;;;13.80;79.30;;;;;;5030869;28;20069;-67
2023/03/23 08:31:39;;;;;;;2.35;1.00;;;13.90;79.60;;;;;;5002444;28;20036;-68
2023/03/23 08:34:05;;;;;;;0.70;0.50;;;13.90;79.60;;;;;;5033874;28;20040;-69
2023/03/23 08:36:32;;;;;;;4.07;1.30;;;13.90;79.70;;;;;;5024465;28;20030;-68
2023/03/23 08:38:59;;;;;;;1.25;0.90;;;14.00;79.80;;;;;;5010998;28;20025;-66
2023/03/23 08:41:25;;;;;;;0.60;0.38;;;14.00;79.90;;;;;;5027928;28;20044;-65
2023/03/23 08:43:52;;;;;;;1.30;0.85;;;13.90;80.00;;;;;;5034841;28;20044;-65
2023/03/23 08:46:19;;;;;;;3.40;0.60;;;14.00;80.00;;;;;;5015973;28;20618;-66
2023/03/23 08:48:46;;;;;;;2.03;1.02;;;14.00;79.90;;;;;;5029855;28;20091;-65
2023/03/23 08:51:12;;;;;;;1.42;0.85;;;14.00;79.90;;;;;;5038200;28;20018;-69
2023/03/23 08:53:38;;;;;;;1.52;0.90;;;14.00;79.70;;;;;;5035193;28;20085;-65
2023/03/23 08:56:09;;;;;;;3.13;0.95;;;14.00;79.50;;;;;;5026248;28;20060;-65
2023/03/23 08:58:36;;;;;;;2.70;0.75;;;14.10;79.30;;;;;;5021844;28;20480;-69
2023/03/23 09:01:03;;;;;;;1.70;0.50;;;14.10;78.40;;;;;;5010898;28;20572;-66
2023/03/23 09:03:29;;;;;;;1.60;0.60;;;14.10;78.00;;;;;;5030057;28;20439;-66
2023/03/23 09:06:03;;;;;;;3.03;0.95;;;14.10;78.10;;;;;;5035744;28;20362;-65
2023/03/23 09:08:30;;;;;;;1.42;0.85;;;14.10;78.00;;;;;;5030514;28;20469;-66
2023/03/23 09:11:08;;;;;;;0.82;0.50;;;14.10;77.70;;;;;;5026724;28;20036;-69
2023/03/23 09:13:35;;;;;;;2.10;1.10;;;14.20;77.70;;;;;;5004997;28;20492;-68
2023/03/23 09:16:05;;;;;;;0.73;0.35;;;14.20;77.50;;;;;;4995351;28;20040;-69
2023/03/23 09:18:32;;;;;;;2.35;0.70;;;14.20;77.10;;;;;;5031135;28;20119;-69
2023/03/23 09:20:59;;;;;;;2.90;0.63;;;14.20;76.90;;;;;;5023209;28;20022;-68
2023/03/23 09:23:25;;;;;;;3.35;0.65;;;14.30;76.80;;;;;;5004374;28;20069;-68
2023/03/23 09:25:51;;;;;;;1.30;0.68;;;14.40;76.30;;;;;;5030364;28;20499;-69
2023/03/23 09:28:18;;;;;;;0.75;0.60;;;14.50;75.50;;;;;;5019342;28;20026;-68
2023/03/23 09:30:45;;;;;;;0.35;0.35;;;14.50;75.40;;;;;;5004106;28;20053;-66
2023/03/23 09:33:11;;;;;;;0.35;0.30;;;14.70;75.00;;;;;;5033832;28;20025;-68
2023/03/23 09:35:38;;;;;;;4.18;0.52;;;14.60;74.30;;;;;;5027146;28;20175;-68
2023/03/23 09:38:05;;;;;;;0.63;0.55;;;14.60;73.70;;;;;;5032462;28;20033;-66
2023/03/23 09:40:48;;;;;;;1.75;0.57;;;14.70;73.70;;;;;;5018184;28;20171;-66
2023/03/23 09:43:41;;;;;;;0.85;0.40;;;14.80;73.20;;;;;;5031891;28;20025;-65
2023/03/23 09:46:41;;;;;;;0.50;0.50;;;14.80;72.80;;;;;;5028066;28;20041;-67
2023/03/23 09:49:42;;;;;;;1.20;0.60;;;15.00;73.30;;;;;;5031747;28;20029;-67
2023/03/23 09:52:16;;;;;;;1.38;0.63;;;15.10;72.90;;;;;;5030482;28;20030;-67
2023/03/23 09:54:51;;;;;;;1.45;0.73;;;15.00;71.80;;;;;;5026604;28;20033;-68
2023/03/23 09:57:38;;;;;;;3.60;1.20;;;15.00;72.10;;;;;;5031200;28;20431;-67
2023/03/23 10:00:16;;;;;;;3.30;1.63;;;15.20;72.00;;;;;;5010549;28;20033;-66
2023/03/23 10:03:01;;;;;;;1.75;0.70;;;15.30;71.10;;;;;;5027392;28;20183;-67
2023/03/23 10:05:49;;;;;;;4.38;0.82;;;15.30;70.70;;;;;;5028128;28;20017;-67
2023/03/23 10:08:19;;;;;;;2.60;0.55;;;15.30;70.60;;;;;;5029989;28;20091;-68
2023/03/23 10:11:12;;;;;;;3.38;1.40;;;15.30;70.40;;;;;;5029281;28;20527;-69
2023/03/23 10:13:40;;;;;;;3.15;0.73;;;15.20;70.70;;;;;;5013877;28;20033;-66
2023/03/23 10:16:16;;;;;;;3.88;0.70;;;15.40;70.50;;;;;;5030895;28;20037;-65
2023/03/23 10:18:43;;;;;;;4.63;1.38;;;15.60;69.80;;;;;;5015097;28;20057;-66
2023/03/23 10:21:17;;;;;;;1.48;0.70;;;15.80;69.50;;;;;;5023958;28;20112;-67
2023/03/23 10:23:48;;;;;;;1.25;0.70;;;15.80;68.60;;;;;;5034210;28;20044;-65
2023/03/23 10:26:34;;;;;;;2.17;0.68;;;15.80;68.10;;;;;;5017325;28;20320;-68
2023/03/23 10:29:18;;;;;;;2.42;0.93;;;15.90;67.50;;;;;;5028094;28;20530;-67
2023/03/23 10:31:55;;;;;;;1.20;1.08;;;15.80;67.40;;;;;;5029223;28;20377;-66
2023/03/23 10:34:32;;;;;;;5.88;1.13;;;15.80;66.40;;;;;;5034927;28;20112;-66
2023/03/23 10:37:20;;;;;;;5.32;1.23;;;15.80;66.80;;;;;;5029961;28;20029;-66
2023/03/23 10:39:58;;;;;;;0.73;0.52;;;15.80;67.20;;;;;;5034069;28;20034;-67
2023/03/23 10:42:31;;;;;;;0.77;0.70;;;15.80;66.70;;;;;;5028715;28;20033;-65
2023/03/23 10:45:00;;;;;;;5.30;1.33;;;15.90;66.60;;;;;;5024409;28;20041;-66
2023/03/23 10:47:26;;;;;;;2.65;1.02;;;16.10;66.70;;;;;;5027137;28;20781;-68
2023/03/23 10:50:02;;;;;;;3.22;1.42;;;16.20;65.40;;;;;;5024616;28;20021;-68
2023/03/23 10:52:42;;;;;;;1.55;1.00;;;16.30;64.90;;;;;;5018094;28;20484;-67
2023/03/23 10:55:13;;;;;;;1.95;1.00;;;16.40;64.40;;;;;;5028176;28;20098;-67
2023/03/23 10:57:42;;;;;;;1.48;0.65;;;16.40;64.50;;;;;;5022234;28;20017;-67
2023/03/23 11:00:40;;;;;;;4.75;1.20;;;16.50;64.70;;;;;;5021417;28;20083;-68
2023/03/23 11:03:23;;;;;;;3.30;1.00;;;16.60;64.10;;;;;;5025822;28;20033;-67
2023/03/23 11:05:52;;;;;;;1.90;1.45;;;16.60;62.20;;;;;;5023847;28;20044;-68
2023/03/23 11:08:22;;;;;;;2.38;1.00;;;16.60;62.90;;;;;;5023993;28;20014;-68
2023/03/23 11:10:52;;;;;;;4.40;1.75;;;16.70;63.70;;;;;;5025268;28;20021;-69
2023/03/23 11:13:20;;;;;;;9.50;1.35;;;16.70;63.40;;;;;;5025164;28;20057;-68
2023/03/23 11:15:47;;;;;;;3.03;1.00;;;16.80;61.90;;;;;;5028544;28;20174;-66
2023/03/23 11:18:20;;;;;;;2.88;0.70;;;16.80;62.40;;;;;;5036702;28;20129;-65
2023/03/23 11:20:52;;;;;;;2.38;1.00;;;17.20;62.90;;;;;;5020320;28;20031;-67
2023/03/23 11:23:22;;;;;;;1.20;0.90;;;17.60;60.90;;;;;;5029723;28;20120;-66
2023/03/23 11:26:14;;;;;;;2.05;1.00;;;17.70;60.30;;;;;;5024021;28;20755;-66
2023/03/23 11:29:13;;;;;;;1.45;0.88;;;17.80;59.70;;;;;;5026345;28;20528;-66
2023/03/23 11:31:44;;;;;;;4.35;1.40;;;17.90;59.20;;;;;;5022148;28;20080;-65
2023/03/23 11:34:18;;;;;;;1.13;0.80;;;17.70;58.10;;;;;;5023683;28;20029;-67
2023/03/23 11:36:51;;;;;;;1.35;0.90;;;17.60;59.00;;;;;;5009776;28;20325;-66
2023/03/23 11:39:27;;;;;;;;;;;17.70;59.40;;;;;;5007020;28;20115;-66
2023/03/23 11:41:54;;;;;;;1.10;0.85;;;18.00;59.10;;;;;;5023232;28;20340;-65
2023/03/23 11:44:23;;;;;;;4.15;1.42;;;18.10;58.40;;;;;;5026870;28;20369;-65
2023/03/23 11:46:48;;;;;;;3.97;0.80;;;18.10;59.10;;;;;;5020245;28;20469;-66
2023/03/23 11:49:43;;;;;;;2.50;0.70;;;18.40;58.70;;;;;;5022779;28;20036;-67
2023/03/23 11:52:43;;;;;;;2.08;1.20;;;18.20;58.00;;;;;;5020746;28;20040;-67
2023/03/23 11:55:30;;;;;;;3.17;0.75;;;17.80;58.90;;;;;;5012750;28;20152;-68
2023/03/23 11:58:03;;;;;;;6.43;1.67;;;17.40;59.40;;;;;;5024784;28;20026;-67
2023/03/23 12:00:30;;;;;;;4.10;0.80;;;17.10;60.50;;;;;;5024839;28;20091;-68
2023/03/23 12:03:20;;;;;;;1.33;1.00;;;16.90;61.40;;;;;;5025336;28;20068;-68
2023/03/23 12:05:55;;;;;;;3.00;1.33;;;16.80;61.60;;;;;;5026050;28;20442;-67
2023/03/23 12:08:34;;;;;;;2.90;1.00;;;16.70;62.20;;;;;;5014689;28;20022;-68
2023/03/23 12:11:19;;;;;;;5.47;1.52;;;16.60;62.80;;;;;;5021895;28;20049;-67
2023/03/23 12:13:52;;;;;;;3.95;1.05;;;16.50;63.20;;;;;;5030944;28;20049;-68
2023/03/23 12:16:17;;;;;;;3.45;1.08;;;16.40;63.20;;;;;;5026629;28;20463;-68
2023/03/23 12:19:02;;;;;;;0.88;0.75;;;16.30;63.20;;;;;;5027571;28;20095;-68
2023/03/23 12:21:56;;;;;;;3.55;1.27;;;16.40;63.50;;;;;;5014041;28;20478;-68
2023/03/23 12:25:08;;;;;;;0.63;0.63;;;16.40;64.00;;;;;;5033498;28;20037;-67
2023/03/23 12:27:41;;;;;;;3.63;1.40;;;16.50;64.90;;;;;;4945353;29;20051;-66
2023/03/23 12:30:35;;;;;;;2.20;1.40;;;16.50;65.80;;;;;;5022400;28;20125;-65
2023/03/23 12:33:46;;;;;;;0.80;0.80;;;16.70;66.60;;;;;;5010221;28;20033;-68
2023/03/23 12:36:21;;;;;;;3.15;1.23;;;17.20;66.60;;;;;;4950306;28;20114;-69
2023/03/23 12:39:13;;;;;;;3.70;1.27;;;17.40;65.90;;;;;;4949465;29;20114;-68
2023/03/23 12:41:58;;;;;;;1.33;0.90;;;17.50;65.70;;;;;;5010099;28;20067;-69
2023/03/23 12:44:35;;;;;;;1.48;1.13;;;17.40;65.70;;;;;;5030480;28;20452;-68
2023/03/23 12:47:22;;;;;;;3.63;1.30;;;17.20;65.30;;;;;;5020824;28;20025;-68
2023/03/23 12:50:14;;;;;;;3.67;1.65;;;17.10;64.90;;;;;;5033902;28;20029;-66
2023/03/23 12:53:18;;;;;;;1.67;1.20;;;16.90;64.80;;;;;;5021171;28;20079;-65
2023/03/23 12:55:52;;;;;;;2.03;1.58;;;16.70;65.30;;;;;;4997809;28;20041;-66
2023/03/23 12:58:26;;;;;;;3.25;1.25;;;16.60;65.40;;;;;;5026812;28;20022;-67
2023/03/23 13:01:13;;;;;;;0.85;0.70;;;16.50;65.70;;;;;;5021211;28;20029;-66
2023/03/23 13:03:44;;;;;;;0.77;0.68;;;16.50;66.00;;;;;;5024046;28;20818;-67
2023/03/23 13:06:24;;;;;;;3.03;1.25;;;16.40;67.30;;;;;;5024408;28;20039;-64
2023/03/23 13:09:10;;;;;;;3.63;1.08;;;16.20;68.20;;;;;;5033674;28;20133;-65
2023/03/23 13:11:38;;;;;;;3.30;0.88;;;15.90;69.40;;;;;;5025845;28;20449;-65
2023/03/23 13:14:09;;;;;;;4.03;1.58;;;15.70;70.90;;;;;;5006517;28;20111;-69